Time;durP1;ratioP1;P1;durP2;ratioP2;P2;SDS_P1;SDS_P2;PMS_P1;PMS_P2;Temp;Humidity;BMP_temperature;BMP_pressure;BME280_temperature;BME280_humidity;BME280_pressure;Samples;Min_cycle;Max_cycle;Signal;HPM_P1;HPM_P2
2023/12/11 00:01:03;;;;;;;3.47;1.20;;;18.60;58.70;;;;;;4978587;28;20469;-65
2023/12/11 00:03:28;;;;;;;5.60;1.85;;;18.50;58.50;;;;;;4979352;28;20042;-64
2023/12/11 00:05:54;;;;;;;2.15;0.85;;;18.60;58.60;;;;;;4986535;28;20031;-59
2023/12/11 00:08:19;;;;;;;2.13;0.90;;;18.50;58.50;;;;;;4989094;28;20031;-63
2023/12/11 00:10:45;;;;;;;2.85;1.10;;;18.50;58.60;;;;;;4988793;28;20097;-64
2023/12/11 00:13:10;;;;;;;4.30;1.40;;;18.50;58.60;;;;;;4989684;28;20044;-64
2023/12/11 00:15:36;;;;;;;2.70;1.00;;;18.50;58.50;;;;;;4987800;28;20085;-61
2023/12/11 00:18:02;;;;;;;3.15;0.98;;;18.50;58.50;;;;;;4986977;28;20023;-66
2023/12/11 00:20:27;;;;;;;2.03;1.02;;;18.50;58.50;;;;;;4985935;28;20061;-66
2023/12/11 00:22:52;;;;;;;2.72;1.10;;;18.50;58.50;;;;;;4985709;28;20066;-66
2023/12/11 00:25:18;;;;;;;2.10;0.90;;;18.50;58.60;;;;;;4986066;28;20034;-66
2023/12/11 00:27:43;;;;;;;2.25;0.90;;;18.50;58.50;;;;;;4988633;28;20121;-67
2023/12/11 00:30:09;;;;;;;2.67;1.02;;;18.50;58.60;;;;;;4986846;28;20037;-67
2023/12/11 00:32:35;;;;;;;2.30;0.98;;;18.50;58.50;;;;;;4987965;28;20034;-66
2023/12/11 00:35:01;;;;;;;2.78;0.80;;;18.50;58.50;;;;;;4987094;28;20027;-66
2023/12/11 00:37:27;;;;;;;5.90;1.40;;;18.50;58.60;;;;;;4987527;28;20569;-65
2023/12/11 00:39:52;;;;;;;2.58;1.10;;;18.50;59.10;;;;;;4987801;28;20034;-66
2023/12/11 00:42:18;;;;;;;3.63;1.30;;;18.50;58.50;;;;;;4987213;28;20460;-66
2023/12/11 00:44:43;;;;;;;3.22;1.00;;;18.50;58.50;;;;;;4987711;28;20038;-65
2023/12/11 00:47:10;;;;;;;1.23;0.80;;;18.40;58.50;;;;;;4986834;28;20031;-66
2023/12/11 00:49:35;;;;;;;1.85;0.90;;;18.50;58.50;;;;;;4987492;28;20054;-66
2023/12/11 00:52:01;;;;;;;2.33;0.90;;;18.40;58.40;;;;;;4983991;28;20497;-66
2023/12/11 00:54:26;;;;;;;4.38;1.15;;;18.50;58.50;;;;;;4987533;28;20410;-66
2023/12/11 00:56:52;;;;;;;2.45;0.80;;;18.40;58.40;;;;;;4987548;28;20030;-67
2023/12/11 00:59:17;;;;;;;1.90;0.90;;;18.40;58.40;;;;;;4987670;28;20030;-67
2023/12/11 01:01:43;;;;;;;3.28;1.02;;;18.50;58.50;;;;;;4987291;28;21924;-66
2023/12/11 01:04:08;;;;;;;1.67;0.80;;;18.50;58.50;;;;;;4986665;28;20041;-67
2023/12/11 01:06:34;;;;;;;1.95;0.85;;;18.40;58.40;;;;;;4988162;28;20110;-66
2023/12/11 01:08:59;;;;;;;1.58;0.88;;;18.40;58.40;;;;;;4986718;28;20108;-66
2023/12/11 01:11:25;;;;;;;4.30;0.82;;;18.40;58.40;;;;;;4987606;28;20053;-66
2023/12/11 01:13:50;;;;;;;1.73;0.70;;;18.40;58.40;;;;;;4987834;28;20058;-68
2023/12/11 01:16:16;;;;;;;2.42;0.90;;;18.50;58.40;;;;;;4986568;28;20536;-66
2023/12/11 01:18:42;;;;;;;1.48;0.75;;;18.40;58.50;;;;;;4990055;28;20124;-66
2023/12/11 01:21:08;;;;;;;1.45;0.77;;;18.40;58.40;;;;;;4991265;28;20038;-65
2023/12/11 01:23:33;;;;;;;2.35;0.60;;;18.40;58.40;;;;;;4991544;28;20018;-65
2023/12/11 01:25:59;;;;;;;1.73;0.90;;;18.40;58.30;;;;;;4989798;28;20022;-67
2023/12/11 01:28:24;;;;;;;2.20;0.65;;;18.40;58.40;;;;;;4990677;28;20032;-66
2023/12/11 01:30:49;;;;;;;3.45;0.98;;;18.40;58.40;;;;;;4989314;28;20489;-66
2023/12/11 01:33:15;;;;;;;1.55;0.90;;;18.40;58.40;;;;;;4990382;28;20106;-67
2023/12/11 01:35:40;;;;;;;3.20;1.35;;;18.40;58.50;;;;;;4990619;28;20026;-65
2023/12/11 01:38:06;;;;;;;1.88;0.90;;;18.40;58.40;;;;;;4990357;28;20061;-67
2023/12/11 01:40:31;;;;;;;2.05;0.73;;;18.30;58.40;;;;;;4990481;28;20046;-65
2023/12/11 01:43:11;;;;;;;2.05;1.00;;;18.40;58.50;;;;;;4990010;28;20038;-66
2023/12/11 01:45:36;;;;;;;4.13;0.70;;;18.30;58.40;;;;;;4989831;28;20579;-66
2023/12/11 01:48:02;;;;;;;2.40;1.10;;;18.30;58.40;;;;;;4990353;28;20034;-66
2023/12/11 01:50:28;;;;;;;1.90;0.90;;;18.30;58.40;;;;;;4989683;28;20034;-66
2023/12/11 01:52:53;;;;;;;3.28;0.63;;;18.30;58.30;;;;;;4990610;28;20031;-67
2023/12/11 01:55:19;;;;;;;1.52;0.65;;;18.30;58.40;;;;;;4989984;28;20546;-65
2023/12/11 01:57:45;;;;;;;2.40;0.98;;;18.30;58.40;;;;;;4987937;28;20152;-65
2023/12/11 02:00:11;;;;;;;2.53;1.00;;;18.30;58.30;;;;;;4985964;28;20041;-65
2023/12/11 02:02:36;;;;;;;1.95;0.80;;;18.30;58.30;;;;;;4980234;28;20682;-64
2023/12/11 02:05:03;;;;;;;1.75;0.90;;;18.30;58.30;;;;;;4985535;28;20085;-66
2023/12/11 02:07:28;;;;;;;2.42;0.90;;;18.30;58.30;;;;;;4985386;28;20047;-66
2023/12/11 02:09:54;;;;;;;1.67;0.98;;;18.30;58.20;;;;;;4985784;28;20391;-69
2023/12/11 02:12:19;;;;;;;2.83;0.90;;;18.30;58.30;;;;;;4988584;28;20110;-66
2023/12/11 02:14:45;;;;;;;1.70;0.73;;;18.30;58.20;;;;;;4985712;28;20937;-66
2023/12/11 02:17:10;;;;;;;2.25;0.70;;;18.30;58.20;;;;;;4986131;28;20030;-66
2023/12/11 02:19:36;;;;;;;2.10;0.90;;;18.30;58.20;;;;;;4984854;28;20038;-66
2023/12/11 02:22:02;;;;;;;1.45;0.68;;;18.40;58.20;;;;;;4984570;28;20038;-66
2023/12/11 02:24:32;;;;;;;1.88;1.00;;;18.40;58.00;;;;;;4988828;28;20041;-65
2023/12/11 02:26:58;;;;;;;1.55;0.77;;;18.50;57.90;;;;;;4989178;28;20545;-66
2023/12/11 02:29:24;;;;;;;1.65;0.80;;;18.60;57.60;;;;;;4988446;28;20026;-63
2023/12/11 02:31:49;;;;;;;2.72;0.65;;;18.70;57.30;;;;;;4989237;28;20501;-66
2023/12/11 02:34:15;;;;;;;3.28;0.80;;;18.80;57.60;;;;;;4988276;28;20049;-68
2023/12/11 02:36:40;;;;;;;1.88;1.00;;;19.00;56.70;;;;;;4988654;28;20046;-66
2023/12/11 02:39:06;;;;;;;2.20;0.50;;;19.10;56.30;;;;;;4988750;28;20031;-67
2023/12/11 02:41:31;;;;;;;1.67;0.70;;;19.30;55.90;;;;;;4988768;28;20041;-67
2023/12/11 02:43:58;;;;;;;1.95;1.08;;;19.50;55.70;;;;;;4987853;28;20069;-69
2023/12/11 02:46:24;;;;;;;2.45;0.68;;;19.60;55.40;;;;;;4988691;28;20379;-66
2023/12/11 02:48:49;;;;;;;1.33;1.05;;;19.70;55.20;;;;;;4988840;28;20065;-68
2023/12/11 02:51:16;;;;;;;2.45;0.60;;;19.90;54.90;;;;;;4988352;28;20027;-66
2023/12/11 02:53:42;;;;;;;1.05;0.40;;;19.90;54.60;;;;;;4988692;28;20022;-67
2023/12/11 02:56:08;;;;;;;0.93;0.35;;;20.00;54.30;;;;;;4988068;28;20034;-65
2023/12/11 02:58:33;;;;;;;3.60;0.70;;;20.10;54.10;;;;;;4988046;28;20442;-68
2023/12/11 03:00:59;;;;;;;1.13;0.68;;;20.10;54.10;;;;;;4985686;28;20038;-68
2023/12/11 03:03:25;;;;;;;1.95;0.80;;;20.10;53.90;;;;;;4980524;28;20053;-65
2023/12/11 03:05:51;;;;;;;1.10;0.50;;;20.10;54.10;;;;;;4981166;28;20053;-66
2023/12/11 03:08:16;;;;;;;2.95;1.00;;;20.10;54.20;;;;;;4980683;28;20117;-67
2023/12/11 03:10:42;;;;;;;2.45;0.90;;;20.00;54.20;;;;;;4980535;28;21051;-67
2023/12/11 03:13:07;;;;;;;4.78;0.80;;;20.00;54.40;;;;;;4984850;28;20818;-69
2023/12/11 03:15:33;;;;;;;1.95;0.43;;;20.00;54.40;;;;;;4985853;28;20026;-66
2023/12/11 03:17:59;;;;;;;1.02;0.80;;;19.90;54.50;;;;;;4982382;28;20551;-66
2023/12/11 03:20:25;;;;;;;1.98;0.65;;;19.90;54.60;;;;;;4987622;28;20026;-66
2023/12/11 03:22:50;;;;;;;3.10;0.50;;;19.80;54.70;;;;;;4987965;28;20042;-67
2023/12/11 03:25:16;;;;;;;3.53;0.60;;;19.80;54.90;;;;;;4987131;28;20037;-66
2023/12/11 03:27:41;;;;;;;2.60;0.38;;;19.70;55.00;;;;;;4986758;28;20042;-68
2023/12/11 03:30:07;;;;;;;1.67;0.57;;;19.60;55.10;;;;;;4987686;28;20548;-67
2023/12/11 03:32:33;;;;;;;2.17;0.65;;;19.60;55.20;;;;;;4978251;28;20033;-66
2023/12/11 03:34:59;;;;;;;1.52;0.70;;;19.60;55.30;;;;;;4980873;28;20121;-66
2023/12/11 03:37:24;;;;;;;1.02;0.60;;;19.50;55.30;;;;;;4980723;28;20035;-66
2023/12/11 03:39:50;;;;;;;2.10;0.75;;;19.40;55.40;;;;;;4984291;28;20092;-65
2023/12/11 03:42:15;;;;;;;1.58;0.68;;;19.40;55.60;;;;;;4977314;28;20062;-66
2023/12/11 03:44:41;;;;;;;1.17;0.60;;;19.40;55.70;;;;;;4980915;28;20122;-67
2023/12/11 03:47:06;;;;;;;1.20;0.68;;;19.30;55.80;;;;;;4976231;28;20054;-67
2023/12/11 03:49:31;;;;;;;1.40;0.50;;;19.30;55.80;;;;;;4978673;28;20413;-66
2023/12/11 03:51:57;;;;;;;1.20;0.50;;;19.20;55.80;;;;;;4984107;28;20115;-66
2023/12/11 03:54:22;;;;;;;1.40;0.55;;;19.20;55.90;;;;;;4977125;28;20409;-65
2023/12/11 03:56:48;;;;;;;3.78;0.57;;;19.20;56.00;;;;;;4980289;28;21547;-66
2023/12/11 03:59:14;;;;;;;3.25;0.70;;;19.10;56.00;;;;;;4981957;28;20031;-67
2023/12/11 04:01:40;;;;;;;2.05;0.90;;;19.10;56.10;;;;;;4976035;28;20038;-66
2023/12/11 04:04:05;;;;;;;1.15;0.50;;;19.10;56.10;;;;;;4974150;28;20026;-68
2023/12/11 04:06:31;;;;;;;1.88;0.60;;;19.10;56.20;;;;;;4975094;28;20070;-68
2023/12/11 04:08:56;;;;;;;1.85;0.60;;;19.00;56.20;;;;;;4978813;28;20038;-66
2023/12/11 04:11:22;;;;;;;3.25;0.55;;;19.00;56.20;;;;;;4980352;28;20430;-66
2023/12/11 04:13:47;;;;;;;1.52;0.57;;;19.00;56.30;;;;;;4980200;28;20105;-66
2023/12/11 04:16:13;;;;;;;1.27;0.68;;;18.90;56.30;;;;;;4981119;28;20030;-67
2023/12/11 04:18:39;;;;;;;1.38;0.50;;;18.90;56.30;;;;;;4980169;28;20037;-66
2023/12/11 04:21:05;;;;;;;2.38;0.32;;;18.90;56.30;;;;;;4980148;28;20034;-66
2023/12/11 04:23:31;;;;;;;1.33;0.57;;;18.90;56.40;;;;;;4974739;28;20050;-68
2023/12/11 04:25:58;;;;;;;1.73;0.68;;;18.90;56.30;;;;;;4979482;28;20068;-65
2023/12/11 04:28:24;;;;;;;2.35;0.60;;;18.90;56.40;;;;;;4975030;28;20490;-65
2023/12/11 04:30:50;;;;;;;0.98;0.50;;;18.90;56.40;;;;;;4980115;28;20038;-66
2023/12/11 04:33:15;;;;;;;1.30;0.70;;;18.80;56.40;;;;;;4976309;28;20055;-66
2023/12/11 04:35:41;;;;;;;1.35;0.55;;;18.80;56.50;;;;;;4977719;28;20042;-66
2023/12/11 04:38:06;;;;;;;3.55;0.50;;;18.80;56.60;;;;;;4971381;28;20552;-66
2023/12/11 04:40:32;;;;;;;1.20;0.60;;;18.80;56.70;;;;;;4976954;28;20129;-65
2023/12/11 04:42:57;;;;;;;1.85;0.60;;;18.70;56.70;;;;;;4978276;28;20472;-66
2023/12/11 04:45:23;;;;;;;1.13;0.70;;;18.70;56.90;;;;;;4980828;28;20042;-67
2023/12/11 04:47:48;;;;;;;1.60;0.93;;;18.70;56.80;;;;;;4974026;28;20031;-68
2023/12/11 04:50:14;;;;;;;1.02;0.30;;;18.70;56.90;;;;;;4978473;28;20045;-67
2023/12/11 04:52:39;;;;;;;1.17;0.45;;;18.60;56.90;;;;;;4976476;28;20109;-67
2023/12/11 04:55:05;;;;;;;1.08;0.60;;;18.60;56.90;;;;;;4978456;28;20030;-66
2023/12/11 04:57:30;;;;;;;0.93;0.43;;;18.60;56.90;;;;;;4979925;28;20137;-66
2023/12/11 04:59:56;;;;;;;1.02;0.70;;;18.60;56.90;;;;;;4981385;28;20042;-67
2023/12/11 05:02:21;;;;;;;1.23;0.60;;;18.60;57.00;;;;;;4979578;28;20497;-66
2023/12/11 05:04:47;;;;;;;1.10;0.60;;;18.60;57.00;;;;;;4985859;28;20079;-68
2023/12/11 05:07:12;;;;;;;2.17;0.90;;;18.50;57.00;;;;;;4977746;28;20026;-67
2023/12/11 05:09:38;;;;;;;1.27;0.45;;;18.60;57.10;;;;;;4983329;28;20049;-66
2023/12/11 05:12:03;;;;;;;0.70;0.40;;;18.60;57.10;;;;;;4979504;28;20073;-65
2023/12/11 05:14:29;;;;;;;1.48;0.50;;;18.50;57.00;;;;;;4982966;28;20035;-68
2023/12/11 05:16:54;;;;;;;1.67;0.73;;;18.50;57.00;;;;;;4992909;28;20026;-67
2023/12/11 05:19:20;;;;;;;0.70;0.43;;;18.50;57.10;;;;;;4981442;28;20584;-66
2023/12/11 05:21:45;;;;;;;0.93;0.50;;;18.50;57.10;;;;;;4981044;28;20085;-67
2023/12/11 05:24:11;;;;;;;0.65;0.50;;;18.50;57.10;;;;;;4979717;28;20023;-66
2023/12/11 05:26:37;;;;;;;1.63;0.60;;;18.50;57.10;;;;;;4980443;28;20114;-67
2023/12/11 05:29:04;;;;;;;1.83;0.43;;;18.50;57.10;;;;;;4984732;28;20045;-67
2023/12/11 05:31:30;;;;;;;0.88;0.60;;;18.50;57.20;;;;;;4981406;28;20517;-66
2023/12/11 05:33:55;;;;;;;0.98;0.52;;;18.40;57.20;;;;;;4999206;28;20034;-67
2023/12/11 05:36:21;;;;;;;1.70;0.45;;;18.40;57.20;;;;;;4988300;28;20041;-66
2023/12/11 05:38:46;;;;;;;0.98;0.40;;;18.40;57.10;;;;;;4984356;28;20034;-69
2023/12/11 05:41:12;;;;;;;1.17;0.50;;;18.40;57.20;;;;;;4982297;28;20027;-66
2023/12/11 05:43:37;;;;;;;1.63;0.70;;;18.40;57.10;;;;;;4980669;28;20041;-66
2023/12/11 05:46:03;;;;;;;0.52;0.30;;;18.50;57.20;;;;;;4982821;28;20121;-66
2023/12/11 05:48:28;;;;;;;1.55;0.70;;;18.40;57.20;;;;;;4980535;28;20057;-66
2023/12/11 05:50:54;;;;;;;1.08;0.50;;;18.50;57.70;;;;;;4984953;28;20080;-67
2023/12/11 05:53:19;;;;;;;2.88;0.50;;;18.60;57.20;;;;;;4980598;28;20027;-65
2023/12/11 05:55:45;;;;;;;1.30;0.70;;;18.90;56.80;;;;;;4989052;28;20037;-65
2023/12/11 05:58:10;;;;;;;0.77;0.40;;;19.40;55.70;;;;;;4979690;28;20114;-65
2023/12/11 06:00:36;;;;;;;1.30;0.60;;;20.00;54.50;;;;;;4980279;28;20023;-65
2023/12/11 06:03:02;;;;;;;0.70;0.38;;;20.30;53.70;;;;;;4982448;28;20112;-66
2023/12/11 06:05:27;;;;;;;2.63;0.50;;;20.60;53.20;;;;;;4978762;28;20572;-67
2023/12/11 06:07:53;;;;;;;1.80;0.52;;;20.90;52.70;;;;;;4982163;28;20038;-65
2023/12/11 06:10:18;;;;;;;1.85;0.30;;;21.20;52.10;;;;;;4978806;28;20085;-67
2023/12/11 06:12:44;;;;;;;0.95;0.30;;;21.30;51.90;;;;;;4983635;28;20465;-65
2023/12/11 06:15:09;;;;;;;0.80;0.50;;;21.40;51.80;;;;;;4977033;28;20035;-67
2023/12/11 06:17:35;;;;;;;4.22;0.40;;;21.60;51.50;;;;;;4978903;28;20391;-64
2023/12/11 06:20:00;;;;;;;1.38;0.50;;;21.90;51.20;;;;;;4976742;28;20041;-65
2023/12/11 06:22:26;;;;;;;2.15;0.65;;;21.90;51.00;;;;;;4974865;28;20058;-64
2023/12/11 06:24:51;;;;;;;0.60;0.50;;;22.00;50.90;;;;;;4983704;28;20377;-67
2023/12/11 06:27:17;;;;;;;2.50;0.70;;;22.20;50.80;;;;;;4980717;28;20034;-67
2023/12/11 06:29:42;;;;;;;3.33;0.50;;;22.30;50.50;;;;;;4979242;28;20118;-67
2023/12/11 06:32:11;;;;;;;1.05;0.40;;;22.30;50.50;;;;;;4976788;28;20117;-65
2023/12/11 06:34:36;;;;;;;1.45;0.50;;;22.50;50.40;;;;;;4981165;28;20031;-68
2023/12/11 06:37:02;;;;;;;0.82;0.57;;;22.60;50.20;;;;;;4979238;28;20053;-69
2023/12/11 06:39:27;;;;;;;2.83;0.77;;;22.60;50.20;;;;;;4989551;28;20042;-66
2023/12/11 06:41:53;;;;;;;0.98;0.50;;;22.70;50.10;;;;;;4985998;28;20084;-66
2023/12/11 06:44:18;;;;;;;1.13;0.60;;;22.80;50.00;;;;;;4974237;28;20042;-66
2023/12/11 06:46:44;;;;;;;1.08;0.50;;;22.90;49.90;;;;;;4986899;28;20057;-66
2023/12/11 06:49:09;;;;;;;2.47;0.57;;;22.80;50.00;;;;;;4983379;28;20215;-66
2023/12/11 06:51:37;;;;;;;1.10;0.52;;;23.00;50.00;;;;;;4985363;28;20029;-65
2023/12/11 06:54:02;;;;;;;1.73;1.05;;;23.10;49.70;;;;;;4982735;28;20061;-67
2023/12/11 06:56:30;;;;;;;5.32;1.15;;;23.20;49.70;;;;;;4983596;28;20466;-64
2023/12/11 06:58:56;;;;;;;1.20;0.70;;;23.20;49.60;;;;;;4984828;28;20033;-65
2023/12/11 07:01:35;;;;;;;2.92;0.80;;;23.30;49.60;;;;;;4977465;28;20023;-66
2023/12/11 07:04:01;;;;;;;1.17;0.70;;;23.30;49.40;;;;;;4980562;28;20089;-66
2023/12/11 07:06:27;;;;;;;3.22;1.00;;;23.40;49.40;;;;;;4981606;28;20497;-66
2023/12/11 07:08:52;;;;;;;1.35;0.60;;;23.40;49.40;;;;;;4984232;28;20033;-67
2023/12/11 07:11:18;;;;;;;1.30;0.70;;;23.50;49.40;;;;;;4982442;28;20119;-67
2023/12/11 07:13:44;;;;;;;1.95;0.70;;;23.60;49.20;;;;;;4991360;28;20034;-66
2023/12/11 07:16:09;;;;;;;1.10;0.73;;;23.60;49.10;;;;;;4982511;28;20077;-65
2023/12/11 07:18:35;;;;;;;1.90;0.90;;;23.60;49.20;;;;;;4984295;28;20026;-65
2023/12/11 07:21:01;;;;;;;1.27;0.70;;;23.60;49.40;;;;;;4982916;28;20085;-65
2023/12/11 07:23:26;;;;;;;2.10;0.93;;;23.50;49.40;;;;;;4981526;28;20383;-66
2023/12/11 07:25:52;;;;;;;2.55;0.70;;;23.40;49.60;;;;;;4982180;28;20401;-66
2023/12/11 07:28:17;;;;;;;2.13;0.80;;;23.30;49.70;;;;;;4977531;28;20104;-67
2023/12/11 07:30:43;;;;;;;1.75;0.85;;;23.30;50.00;;;;;;4983977;28;20030;-66
2023/12/11 07:33:08;;;;;;;2.13;0.80;;;23.10;50.20;;;;;;4979807;28;20485;-65
2023/12/11 07:35:35;;;;;;;1.95;1.10;;;23.00;50.50;;;;;;4982071;28;20035;-67
2023/12/11 07:38:01;;;;;;;2.03;1.02;;;22.90;50.90;;;;;;4979279;28;20251;-67
2023/12/11 07:40:27;;;;;;;3.00;1.15;;;22.80;51.10;;;;;;4979582;28;20042;-66
2023/12/11 07:42:52;;;;;;;1.52;0.70;;;22.70;51.50;;;;;;4975815;28;20038;-67
2023/12/11 07:45:18;;;;;;;2.72;1.13;;;22.50;51.60;;;;;;4979663;28;20407;-67
2023/12/11 07:47:43;;;;;;;1.80;1.02;;;22.40;51.90;;;;;;4979970;28;20038;-66
2023/12/11 07:50:09;;;;;;;2.25;1.17;;;22.30;52.10;;;;;;4975314;28;20045;-67
2023/12/11 07:52:34;;;;;;;1.55;0.77;;;22.10;52.30;;;;;;4980299;28;20073;-67
2023/12/11 07:55:00;;;;;;;2.53;1.15;;;22.00;52.50;;;;;;4976250;28;20564;-67
2023/12/11 07:57:26;;;;;;;2.45;1.02;;;21.90;52.70;;;;;;4976527;28;20292;-66
2023/12/11 07:59:52;;;;;;;3.10;1.10;;;21.80;52.80;;;;;;4979308;28;20743;-67
2023/12/11 08:02:18;;;;;;;1.38;0.93;;;21.70;53.10;;;;;;4981587;28;20034;-66
2023/12/11 08:04:43;;;;;;;2.58;1.38;;;21.60;53.20;;;;;;4996825;28;20057;-67
2023/12/11 08:07:09;;;;;;;1.75;1.08;;;21.50;53.40;;;;;;4978769;28;20065;-67
2023/12/11 08:09:39;;;;;;;2.05;1.23;;;21.40;53.60;;;;;;4979013;28;20541;-67
2023/12/11 08:12:05;;;;;;;1.40;1.00;;;21.30;53.70;;;;;;4976284;28;20034;-66
2023/12/11 08:14:30;;;;;;;2.17;0.95;;;21.30;53.90;;;;;;4981914;28;20034;-67
2023/12/11 08:16:56;;;;;;;3.17;1.13;;;21.20;54.00;;;;;;4980140;28;20041;-67
2023/12/11 08:19:21;;;;;;;2.80;1.23;;;21.10;54.10;;;;;;4975867;28;20039;-67
2023/12/11 08:21:46;;;;;;;3.63;1.25;;;21.10;54.30;;;;;;4978371;28;20039;-67
2023/12/11 08:24:12;;;;;;;3.22;1.48;;;21.00;54.30;;;;;;4975142;28;20498;-68
2023/12/11 08:26:38;;;;;;;3.28;1.63;;;21.00;54.50;;;;;;4975900;28;20030;-67
2023/12/11 08:29:03;;;;;;;2.58;1.13;;;20.90;54.50;;;;;;4977821;28;20386;-68
2023/12/11 08:31:30;;;;;;;2.33;1.13;;;20.80;54.50;;;;;;4981203;28;20030;-66
2023/12/11 08:33:55;;;;;;;2.10;1.15;;;20.80;54.50;;;;;;4978154;28;20358;-68
2023/12/11 08:36:21;;;;;;;2.67;1.10;;;20.70;54.70;;;;;;4973489;28;20053;-67
2023/12/11 08:38:47;;;;;;;3.58;1.08;;;20.70;54.60;;;;;;4988256;28;20142;-68
2023/12/11 08:41:12;;;;;;;1.95;1.02;;;20.60;54.70;;;;;;4983362;28;20127;-67
2023/12/11 08:43:38;;;;;;;1.80;1.02;;;20.50;54.80;;;;;;4987306;28;20037;-67
2023/12/11 08:46:03;;;;;;;2.28;1.20;;;20.50;54.80;;;;;;4979396;28;20029;-67
2023/12/11 08:48:29;;;;;;;1.55;1.05;;;20.50;54.90;;;;;;4979094;28;20046;-67
2023/12/11 08:50:54;;;;;;;1.92;1.25;;;20.40;54.90;;;;;;4979972;28;20050;-67
2023/12/11 08:53:20;;;;;;;1.58;1.08;;;20.40;55.00;;;;;;4981299;28;20134;-67
2023/12/11 08:55:46;;;;;;;2.50;1.25;;;20.30;55.00;;;;;;4978180;28;20512;-67
2023/12/11 08:58:11;;;;;;;3.28;1.38;;;20.30;55.20;;;;;;4974558;28;20038;-67
2023/12/11 09:00:37;;;;;;;1.70;1.02;;;20.20;55.10;;;;;;4978690;28;20092;-67
2023/12/11 09:03:02;;;;;;;2.15;1.10;;;20.20;55.30;;;;;;4979554;28;20046;-67
2023/12/11 09:05:28;;;;;;;1.58;0.98;;;20.10;55.20;;;;;;4972880;28;20577;-67
2023/12/11 09:07:55;;;;;;;3.67;1.58;;;20.10;55.40;;;;;;4977100;28;20068;-67
2023/12/11 09:10:21;;;;;;;1.85;1.20;;;20.10;55.50;;;;;;4977894;28;20049;-67
2023/12/11 09:12:46;;;;;;;1.67;0.85;;;20.10;55.50;;;;;;4979091;28;20121;-69
2023/12/11 09:15:12;;;;;;;1.95;0.93;;;20.30;55.20;;;;;;4984880;28;20868;-67
2023/12/11 09:17:37;;;;;;;2.00;1.10;;;20.50;54.70;;;;;;4984787;28;20363;-66
2023/12/11 09:20:04;;;;;;;1.92;1.40;;;20.80;54.10;;;;;;4984492;28;20231;-67
2023/12/11 09:22:30;;;;;;;2.58;1.40;;;21.00;53.60;;;;;;4985622;28;20038;-66
2023/12/11 09:24:55;;;;;;;3.35;1.55;;;21.30;53.10;;;;;;4975286;28;20042;-66
2023/12/11 09:27:21;;;;;;;2.45;1.17;;;21.60;52.50;;;;;;4978199;28;20034;-68
2023/12/11 09:29:50;;;;;;;2.92;1.92;;;21.70;52.10;;;;;;4979787;28;20080;-66
2023/12/11 09:32:15;;;;;;;2.63;1.25;;;21.90;51.80;;;;;;4980384;28;20035;-67
2023/12/11 09:34:41;;;;;;;2.78;1.33;;;22.00;51.50;;;;;;4978920;28;20038;-66
2023/12/11 09:37:07;;;;;;;3.78;1.60;;;22.10;51.40;;;;;;4986497;28;20053;-66
2023/12/11 09:39:32;;;;;;;4.18;1.50;;;22.20;51.20;;;;;;4984586;28;20126;-65
2023/12/11 09:41:59;;;;;;;3.42;1.77;;;22.30;50.90;;;;;;4989981;28;20417;-68
2023/12/11 09:44:26;;;;;;;2.97;1.60;;;22.40;50.90;;;;;;4985521;28;20413;-68
2023/12/11 09:46:58;;;;;;;2.42;1.70;;;22.50;50.80;;;;;;4988632;28;20054;-68
2023/12/11 09:49:24;;;;;;;5.55;1.70;;;22.60;50.70;;;;;;4986062;28;20153;-67
2023/12/11 09:51:49;;;;;;;3.08;1.38;;;22.60;50.60;;;;;;4985464;28;20050;-67
2023/12/11 09:54:15;;;;;;;1.98;1.50;;;22.70;50.60;;;;;;4988584;28;20029;-67
2023/12/11 09:56:43;;;;;;;1.88;1.10;;;22.80;50.50;;;;;;4992671;28;20054;-67
2023/12/11 09:59:10;;;;;;;2.30;1.23;;;22.80;50.50;;;;;;4978219;28;20038;-66
2023/12/11 10:01:36;;;;;;;2.83;1.45;;;22.80;50.50;;;;;;4975290;28;20062;-66
2023/12/11 10:04:02;;;;;;;2.00;1.40;;;22.90;50.40;;;;;;4977083;28;20034;-68
2023/12/11 10:06:28;;;;;;;1.83;1.40;;;22.90;50.30;;;;;;4982536;28;20580;-67
2023/12/11 10:08:53;;;;;;;1.83;1.33;;;23.00;50.40;;;;;;4981692;28;20582;-67
2023/12/11 10:11:22;;;;;;;1.77;1.10;;;23.00;50.30;;;;;;4981229;28;20129;-67
2023/12/11 10:13:48;;;;;;;2.00;1.30;;;23.00;50.40;;;;;;4980212;28;20042;-67
2023/12/11 10:16:31;;;;;;;3.47;1.27;;;23.00;50.40;;;;;;4985558;28;20030;-67
2023/12/11 10:18:57;;;;;;;2.85;1.50;;;22.90;50.50;;;;;;4979708;28;20528;-67
2023/12/11 10:21:27;;;;;;;1.52;1.10;;;22.90;50.50;;;;;;4983692;28;20035;-67
2023/12/11 10:24:10;;;;;;;2.42;1.50;;;22.90;50.60;;;;;;4979897;28;20052;-66
2023/12/11 10:26:37;;;;;;;2.63;1.30;;;22.90;50.80;;;;;;4977319;28;20080;-65
2023/12/11 10:29:23;;;;;;;2.58;1.00;;;22.80;50.70;;;;;;4980530;28;20610;-66
2023/12/11 10:31:50;;;;;;;3.25;1.27;;;22.80;50.80;;;;;;4995362;28;20030;-66
2023/12/11 10:34:15;;;;;;;2.13;1.00;;;22.80;50.90;;;;;;4979792;28;20031;-67
2023/12/11 10:36:51;;;;;;;2.40;1.10;;;22.80;51.00;;;;;;4979380;28;20290;-66
2023/12/11 10:39:20;;;;;;;2.00;1.20;;;22.70;51.00;;;;;;4980977;28;20536;-66
2023/12/11 10:41:46;;;;;;;3.47;1.20;;;22.70;51.10;;;;;;4985823;28;20034;-69
2023/12/11 10:44:25;;;;;;;1.65;0.95;;;22.60;51.20;;;;;;4985956;28;20181;-65
2023/12/11 10:46:54;;;;;;;3.75;1.15;;;22.60;51.20;;;;;;4986830;28;20037;-67
2023/12/11 10:49:21;;;;;;;1.83;1.20;;;22.60;51.30;;;;;;4983843;28;20039;-67
2023/12/11 10:51:47;;;;;;;0.98;0.88;;;22.50;51.40;;;;;;4990135;28;20405;-66
2023/12/11 10:54:12;;;;;;;1.75;1.45;;;22.60;51.50;;;;;;4987848;28;20030;-67
2023/12/11 10:56:43;;;;;;;1.70;1.10;;;22.50;51.50;;;;;;4976871;28;20033;-68
2023/12/11 10:59:11;;;;;;;1.98;1.08;;;22.50;51.50;;;;;;4987296;28;20048;-67
2023/12/11 11:01:38;;;;;;;1.77;1.00;;;22.50;51.50;;;;;;4989780;28;20516;-67
2023/12/11 11:04:07;;;;;;;1.77;1.15;;;22.50;51.50;;;;;;4997510;28;20050;-67
2023/12/11 11:06:38;;;;;;;1.55;1.02;;;22.50;51.60;;;;;;4982948;28;20099;-67
2023/12/11 11:09:16;;;;;;;1.30;1.05;;;22.50;51.70;;;;;;4990451;28;20382;-67
2023/12/11 11:11:52;;;;;;;1.58;1.10;;;22.40;51.70;;;;;;4990294;28;20110;-66
2023/12/11 11:14:17;;;;;;;2.55;1.10;;;22.40;51.80;;;;;;5004818;28;20038;-66
2023/12/11 11:17:01;;;;;;;2.00;1.20;;;22.40;51.80;;;;;;4981857;28;20085;-67
2023/12/11 11:19:29;;;;;;;1.63;1.00;;;22.40;51.80;;;;;;4985658;28;20510;-67
2023/12/11 11:22:20;;;;;;;1.33;0.82;;;22.40;51.90;;;;;;4988024;28;20524;-67
2023/12/11 11:24:46;;;;;;;1.73;0.90;;;22.40;51.80;;;;;;5000566;28;20115;-67
2023/12/11 11:27:42;;;;;;;2.45;1.05;;;22.30;51.90;;;;;;5004695;28;20552;-67
2023/12/11 11:30:08;;;;;;;1.10;0.88;;;22.30;52.00;;;;;;4975368;28;20049;-66
2023/12/11 11:32:52;;;;;;;1.58;1.05;;;22.30;52.00;;;;;;4980062;28;20123;-66
2023/12/11 11:35:45;;;;;;;2.17;0.95;;;22.30;52.00;;;;;;4981928;28;20030;-66
2023/12/11 11:38:11;;;;;;;1.58;0.70;;;22.30;52.00;;;;;;4974120;28;20694;-66
2023/12/11 11:40:37;;;;;;;1.35;1.00;;;22.20;52.10;;;;;;4989752;28;20114;-65
2023/12/11 11:43:11;;;;;;;2.85;0.85;;;22.20;52.20;;;;;;4992182;28;20117;-66
2023/12/11 11:45:37;;;;;;;2.15;1.02;;;22.20;52.30;;;;;;4985125;28;20107;-65
2023/12/11 11:48:03;;;;;;;1.85;0.88;;;22.10;52.30;;;;;;4988420;28;20038;-66
2023/12/11 11:50:28;;;;;;;1.67;0.80;;;22.10;52.40;;;;;;4986509;28;20034;-66
2023/12/11 11:53:01;;;;;;;1.60;0.80;;;22.00;52.50;;;;;;4987315;28;20041;-65
2023/12/11 11:55:28;;;;;;;1.80;0.80;;;22.00;52.60;;;;;;4989417;28;20034;-65
2023/12/11 11:57:54;;;;;;;1.20;0.88;;;21.90;52.70;;;;;;4989843;28;20085;-65
2023/12/11 12:00:25;;;;;;;1.00;0.65;;;21.90;52.80;;;;;;4979076;28;20061;-65
2023/12/11 12:02:57;;;;;;;1.00;0.63;;;21.80;52.80;;;;;;5001415;28;20039;-66
2023/12/11 12:05:23;;;;;;;1.17;0.68;;;21.80;52.90;;;;;;4989290;28;20040;-65
2023/12/11 12:07:49;;;;;;;1.15;0.73;;;21.80;52.90;;;;;;4987677;28;20449;-66
2023/12/11 12:10:16;;;;;;;2.08;0.98;;;21.80;53.00;;;;;;4990529;28;20068;-66
2023/12/11 12:12:42;;;;;;;0.98;0.80;;;21.70;53.10;;;;;;4983139;28;20031;-66
2023/12/11 12:15:08;;;;;;;1.55;0.82;;;21.70;53.10;;;;;;4995710;28;20460;-66
2023/12/11 12:17:36;;;;;;;0.98;0.70;;;21.70;53.10;;;;;;4989919;28;20521;-66
2023/12/11 12:20:12;;;;;;;1.63;0.75;;;21.70;53.20;;;;;;4985223;28;20087;-66
2023/12/11 12:22:38;;;;;;;1.63;0.80;;;21.70;53.20;;;;;;4991367;28;20038;-65
2023/12/11 12:25:13;;;;;;;0.95;0.90;;;21.60;53.20;;;;;;5003513;28;20034;-65
2023/12/11 12:27:39;;;;;;;;;;;21.60;53.10;;;;;;4982275;28;20026;-65
2023/12/11 12:30:05;;;;;;;1.70;0.88;;;21.60;53.20;;;;;;4997328;28;19929;-65
2023/12/11 12:32:31;;;;;;;1.40;0.82;;;21.60;53.20;;;;;;4985612;28;20581;-65
2023/12/11 12:34:57;;;;;;;0.70;0.60;;;21.60;53.10;;;;;;4991744;28;20062;-65
2023/12/11 12:37:24;;;;;;;1.25;0.77;;;21.60;53.20;;;;;;4988812;28;20114;-65
2023/12/11 12:39:55;;;;;;;1.27;0.80;;;21.60;53.10;;;;;;4991021;28;20030;-65
2023/12/11 12:42:21;;;;;;;0.98;0.65;;;21.60;53.10;;;;;;4990054;28;20509;-65
2023/12/11 12:44:46;;;;;;;0.65;0.50;;;21.70;53.10;;;;;;4992032;28;20030;-66